createdAt,value
2019-06-08T00:01:22.867Z,27.30
2019-06-08T00:03:52.967Z,27.30
2019-06-08T00:06:23.007Z,27.30
2019-06-08T00:11:28.231Z,27.40
2019-06-08T00:13:58.271Z,27.40
2019-06-08T00:16:28.186Z,27.40
2019-06-08T00:18:58.202Z,27.40
2019-06-08T00:21:28.001Z,27.40
2019-06-08T00:23:57.936Z,27.40
2019-06-08T00:26:27.998Z,27.40
2019-06-08T00:28:57.877Z,27.40
2019-06-08T00:31:27.962Z,27.50
2019-06-08T00:33:57.780Z,27.50
2019-06-08T00:36:27.805Z,27.60
2019-06-08T00:38:57.706Z,27.80
2019-06-08T00:41:27.724Z,28.00
2019-06-08T00:43:57.531Z,28.20
2019-06-08T00:46:27.586Z,28.50
2019-06-08T00:48:57.601Z,28.80
2019-06-08T00:51:27.701Z,28.90
2019-06-08T00:53:57.418Z,29.10
2019-06-08T00:56:27.130Z,29.20
2019-06-08T00:58:56.839Z,29.30
2019-06-08T01:01:28.203Z,29.20
2019-06-08T01:03:58.203Z,29.10
2019-06-08T01:06:27.915Z,29.10
2019-06-08T01:08:57.624Z,29.10
2019-06-08T01:11:28.796Z,29.20
2019-06-08T01:13:58.682Z,29.40
2019-06-08T01:16:29.262Z,29.60
2019-06-08T01:18:59.198Z,29.70
2019-06-08T01:21:29.960Z,29.80
2019-06-08T01:23:59.886Z,29.90
2019-06-08T01:26:30.185Z,29.90
2019-06-08T01:29:00.153Z,30.00
2019-06-08T01:31:30.522Z,30.10
2019-06-08T01:34:00.759Z,30.20
2019-06-08T01:36:31.207Z,30.30
2019-06-08T01:39:01.400Z,30.50
2019-06-08T01:41:32.220Z,30.70
2019-06-08T01:44:02.063Z,30.90
2019-06-08T01:46:32.381Z,31.10
2019-06-08T01:49:02.380Z,31.30
2019-06-08T01:51:32.768Z,31.50
2019-06-08T01:54:02.543Z,31.50
2019-06-08T01:56:33.315Z,31.50
2019-06-08T01:59:03.503Z,31.30
2019-06-08T02:01:34.119Z,31.30
2019-06-08T02:04:04.215Z,31.40
2019-06-08T02:06:34.695Z,31.60
2019-06-08T02:09:04.840Z,31.70
2019-06-08T02:11:35.008Z,31.70
2019-06-08T02:14:04.813Z,31.70
2019-06-08T02:16:35.346Z,31.60
2019-06-08T02:19:05.659Z,31.60
2019-06-08T02:21:35.551Z,31.60
2019-06-08T02:24:05.592Z,31.70
2019-06-08T02:26:36.394Z,31.70
2019-06-08T02:29:06.240Z,31.80
2019-06-08T02:31:37.701Z,31.90
2019-06-08T02:34:07.755Z,32.00
2019-06-08T02:36:38.899Z,32.20
2019-06-08T02:39:09.112Z,32.40
2019-06-08T02:41:39.988Z,32.50
2019-06-08T02:44:10.276Z,32.30
2019-06-08T02:46:40.486Z,32.10
2019-06-08T02:49:10.386Z,31.90
2019-06-08T02:51:41.181Z,32.00
2019-06-08T02:54:11.407Z,32.00
2019-06-08T02:56:41.215Z,32.20
2019-06-08T02:59:11.376Z,32.30
2019-06-08T03:01:41.391Z,32.30
2019-06-08T03:04:11.607Z,32.30
2019-06-08T03:06:42.869Z,32.00
2019-06-08T03:09:12.774Z,31.80
2019-06-08T03:11:42.997Z,31.80
2019-06-08T03:14:12.915Z,32.00
2019-06-08T03:16:43.308Z,32.00
2019-06-08T03:19:21.881Z,32.10
2019-06-08T03:21:45.837Z,32.30
2019-06-08T03:24:15.645Z,32.60
2019-06-08T03:26:45.653Z,32.80
2019-06-08T03:32:10.109Z,32.40
2019-06-08T03:34:46.808Z,32.30
2019-06-08T03:37:12.246Z,32.20
2019-06-08T03:39:43.015Z,32.10
2019-06-08T03:42:15.661Z,32.00
2019-06-08T03:44:48.870Z,31.90
2019-06-08T03:47:18.808Z,31.80
2019-06-08T03:49:56.734Z,31.80
2019-06-08T03:52:19.449Z,31.90
2019-06-08T03:54:51.737Z,32.20
2019-06-08T03:57:20.066Z,32.60
2019-06-08T03:59:49.874Z,32.90
2019-06-08T04:02:19.759Z,32.90
2019-06-08T04:04:49.982Z,32.90
2019-06-08T04:07:20.565Z,33.10
2019-06-08T04:09:51.065Z,33.20
2019-06-08T04:12:21.023Z,33.50
2019-06-08T04:14:50.567Z,33.50
2019-06-08T04:17:20.137Z,33.40
2019-06-08T04:20:09.442Z,33.20
2019-06-08T04:22:20.755Z,33.00
2019-06-08T04:24:50.585Z,32.90
2019-06-08T04:27:20.365Z,33.00
2019-06-08T04:29:50.244Z,33.00
2019-06-08T04:32:19.869Z,32.80
2019-06-08T04:34:49.965Z,32.70
2019-06-08T04:37:19.684Z,32.60
2019-06-08T04:39:50.840Z,32.60
2019-06-08T04:42:20.395Z,32.70
2019-06-08T04:44:50.833Z,32.80
2019-06-08T04:47:20.381Z,32.90
2019-06-08T04:53:13.286Z,32.90
2019-06-08T04:55:44.984Z,32.80
2019-06-08T04:58:14.669Z,32.80
2019-06-08T05:00:46.200Z,32.80
2019-06-08T05:03:15.704Z,32.80
2019-06-08T05:05:47.571Z,32.80
2019-06-08T05:08:17.454Z,32.80
2019-06-08T05:10:47.610Z,32.80
2019-06-08T05:13:17.927Z,32.80
2019-06-08T05:15:50.329Z,32.90
2019-06-08T05:18:20.709Z,32.80
2019-06-08T05:20:51.658Z,32.80
2019-06-08T05:23:21.598Z,32.70
2019-06-08T05:25:51.469Z,32.70
2019-06-08T05:28:21.486Z,32.80
2019-06-08T05:30:51.440Z,32.90
2019-06-08T05:33:21.296Z,33.00
2019-06-08T05:35:51.349Z,33.00
2019-06-08T05:38:21.269Z,32.70
2019-06-08T05:40:51.150Z,32.60
2019-06-08T05:43:21.416Z,32.60
2019-06-08T05:45:51.288Z,32.60
2019-06-08T05:48:41.913Z,32.60
2019-06-08T05:51:11.587Z,32.60
2019-06-08T05:54:03.117Z,32.50
2019-06-08T05:56:33.057Z,32.60
2019-06-08T05:59:02.763Z,32.70
2019-06-08T06:01:53.182Z,32.80
2019-06-08T06:04:22.897Z,32.80
2019-06-08T06:06:53.086Z,32.80
2019-06-08T06:09:22.936Z,32.80
2019-06-08T06:11:52.921Z,32.70
2019-06-08T06:14:22.813Z,32.60
2019-06-08T06:16:52.839Z,32.60
2019-06-08T06:19:22.972Z,32.60
2019-06-08T06:21:52.868Z,32.50
2019-06-08T06:24:22.779Z,32.50
2019-06-08T06:26:52.805Z,32.60
2019-06-08T06:29:22.750Z,32.70
2019-06-08T06:31:52.385Z,32.80
2019-06-08T06:34:22.574Z,32.90
2019-06-08T06:36:52.325Z,33.00
2019-06-08T06:39:22.377Z,33.00
2019-06-08T06:41:52.269Z,33.00
2019-06-08T06:44:21.951Z,33.00
2019-06-08T06:46:52.464Z,33.00
2019-06-08T06:49:22.354Z,33.10
2019-06-08T06:51:52.754Z,33.10
2019-06-08T06:54:22.600Z,33.10
2019-06-08T06:56:53.946Z,33.10
2019-06-08T06:59:23.963Z,33.10
2019-06-08T07:01:57.268Z,33.10
2019-06-08T07:04:24.916Z,33.00
2019-06-08T07:06:55.111Z,33.10
2019-06-08T07:09:25.073Z,33.00
2019-06-08T07:11:56.631Z,33.00
2019-06-08T07:14:26.311Z,33.00
2019-06-08T07:16:56.123Z,33.00
2019-06-08T07:19:26.339Z,33.00
2019-06-08T07:21:56.163Z,32.90
2019-06-08T07:24:46.780Z,33.00
2019-06-08T07:27:16.963Z,33.00
2019-06-08T07:29:47.200Z,33.10
2019-06-08T07:32:17.430Z,33.10
2019-06-08T07:34:47.843Z,33.20
2019-06-08T07:37:18.069Z,33.20
2019-06-08T07:39:48.876Z,33.20
2019-06-08T07:42:19.127Z,33.30
2019-06-08T07:44:50.817Z,33.30
2019-06-08T07:47:21.095Z,33.40
2019-06-08T07:49:51.163Z,33.40
2019-06-08T07:52:20.937Z,33.40
2019-06-08T07:54:50.984Z,33.40
2019-06-08T07:57:20.972Z,33.30
2019-06-08T07:59:52.755Z,33.30
2019-06-08T08:02:21.621Z,33.30
2019-06-08T08:04:52.495Z,33.30
2019-06-08T08:07:23.190Z,33.30
2019-06-08T08:09:53.186Z,33.20
2019-06-08T08:12:23.023Z,33.20
2019-06-08T08:14:53.303Z,33.30
2019-06-08T08:17:23.161Z,33.30
2019-06-08T08:19:53.039Z,33.20
2019-06-08T08:22:25.896Z,33.20
2019-06-08T08:24:55.700Z,33.20
2019-06-08T08:27:24.758Z,33.30
2019-06-08T08:29:55.354Z,33.30
2019-06-08T08:32:25.099Z,33.30
2019-06-08T08:34:56.472Z,33.40
2019-06-08T08:37:27.995Z,33.40
2019-06-08T08:39:59.863Z,33.30
2019-06-08T08:42:30.092Z,33.30
2019-06-08T08:45:03.495Z,33.30
2019-06-08T08:47:30.766Z,33.30
2019-06-08T08:50:01.987Z,33.20
2019-06-08T08:52:36.904Z,33.20
2019-06-08T08:55:02.730Z,33.10
2019-06-08T08:57:32.642Z,33.10
2019-06-08T09:00:04.984Z,33.10
2019-06-08T09:02:33.395Z,33.20
2019-06-08T09:05:03.748Z,33.30
2019-06-08T09:07:33.749Z,33.40
2019-06-08T09:10:04.172Z,33.50
2019-06-08T09:12:34.302Z,33.50
2019-06-08T09:15:04.198Z,33.50
2019-06-08T09:17:34.406Z,33.40
2019-06-08T09:20:11.035Z,33.30
2019-06-08T09:22:53.010Z,33.30
2019-06-08T09:25:09.293Z,33.30
2019-06-08T09:27:39.305Z,33.30
2019-06-08T09:30:09.021Z,33.40
2019-06-08T09:32:39.113Z,33.40
2019-06-08T09:35:09.364Z,33.40
2019-06-08T09:37:39.228Z,33.40
2019-06-08T09:40:08.890Z,33.40
2019-06-08T09:42:38.981Z,33.40
2019-06-08T09:45:10.525Z,33.40
2019-06-08T09:47:40.569Z,33.30
2019-06-08T09:50:10.125Z,33.30
2019-06-08T09:52:41.384Z,33.20
2019-06-08T09:55:11.430Z,33.10
2019-06-08T09:57:41.345Z,33.00
2019-06-08T10:00:17.852Z,33.00
2019-06-08T10:02:42.402Z,33.00
2019-06-08T10:05:12.221Z,32.90
2019-06-08T10:07:42.108Z,32.80
2019-06-08T10:10:12.153Z,32.80
2019-06-08T10:12:42.065Z,32.70
2019-06-08T10:15:12.590Z,32.70
2019-06-08T10:17:42.559Z,32.60
2019-06-08T10:20:12.317Z,32.60
2019-06-08T10:22:42.345Z,32.40
2019-06-08T10:25:12.234Z,32.40
2019-06-08T10:27:42.353Z,32.40
2019-06-08T10:30:12.074Z,32.30
2019-06-08T10:32:42.012Z,32.30
2019-06-08T10:35:12.216Z,32.30
2019-06-08T10:37:42.149Z,32.20
2019-06-08T10:40:11.838Z,32.20
2019-06-08T10:42:41.940Z,32.20
2019-06-08T10:45:14.357Z,32.10
2019-06-08T10:47:43.129Z,32.10
2019-06-08T10:50:15.352Z,32.10
2019-06-08T10:52:44.584Z,32.00
2019-06-08T10:55:14.520Z,32.00
2019-06-08T10:57:44.417Z,32.10
2019-06-08T11:00:23.281Z,32.00
2019-06-08T11:02:48.704Z,32.00
2019-06-08T11:05:18.065Z,32.00
2019-06-08T11:07:48.141Z,32.00
2019-06-08T11:10:19.149Z,32.00
2019-06-08T11:12:49.415Z,32.10
2019-06-08T11:15:19.633Z,32.10
2019-06-08T11:17:49.781Z,32.10
2019-06-08T11:20:19.585Z,32.10
2019-06-08T11:22:50.104Z,32.10
2019-06-08T11:25:20.370Z,32.00
2019-06-08T11:27:50.380Z,32.00
2019-06-08T11:30:26.745Z,32.00
2019-06-08T11:32:53.101Z,32.00
2019-06-08T11:35:23.077Z,31.90
2019-06-08T11:40:28.617Z,31.80
2019-06-08T11:42:58.659Z,31.80
2019-06-08T11:45:29.759Z,31.70
2019-06-08T11:48:00.477Z,31.70
2019-06-08T11:50:39.062Z,31.60
2019-06-08T11:53:12.668Z,31.60
2019-06-08T11:55:39.628Z,31.40
2019-06-08T11:58:11.821Z,31.30
2019-06-08T12:00:53.543Z,31.30
2019-06-08T12:03:23.179Z,31.20
2019-06-08T12:05:53.219Z,31.10
2019-06-08T12:08:22.985Z,31.00
2019-06-08T12:10:52.685Z,31.00
2019-06-08T12:13:22.603Z,30.90
2019-06-08T12:15:52.319Z,30.90
2019-06-08T12:18:22.442Z,30.80
2019-06-08T12:20:53.738Z,30.80
2019-06-08T12:23:25.845Z,30.80
2019-06-08T12:25:59.137Z,30.70
2019-06-08T12:28:32.153Z,30.70
2019-06-08T12:31:04.633Z,30.70
2019-06-08T12:33:41.709Z,30.70
2019-06-08T12:36:13.577Z,30.60
2019-06-08T12:38:42.643Z,30.60
2019-06-08T12:41:13.714Z,30.60
2019-06-08T12:43:48.703Z,30.60
2019-06-08T12:46:20.998Z,30.50
2019-06-08T12:48:50.076Z,30.50
2019-06-08T12:51:21.438Z,30.50
2019-06-08T12:53:53.169Z,30.50
2019-06-08T12:56:24.146Z,30.40
2019-06-08T12:58:58.130Z,30.40
2019-06-08T13:01:28.287Z,30.40
2019-06-08T13:03:59.398Z,30.40
2019-06-08T13:06:29.636Z,30.30
2019-06-08T13:08:59.425Z,30.30
2019-06-08T13:11:29.134Z,30.30
2019-06-08T13:13:58.843Z,30.30
2019-06-08T13:16:29.271Z,30.30
2019-06-08T13:18:59.390Z,30.20
2019-06-08T13:21:34.957Z,30.20
2019-06-08T13:24:01.515Z,30.10
2019-06-08T13:26:31.488Z,30.10
2019-06-08T13:29:01.360Z,30.00
2019-06-08T13:31:32.755Z,30.00
2019-06-08T13:34:02.473Z,30.00
2019-06-08T13:36:32.991Z,30.00
2019-06-08T13:39:02.878Z,30.00
2019-06-08T13:41:32.981Z,30.00
2019-06-08T13:44:03.248Z,30.00
2019-06-08T13:46:32.956Z,30.00
2019-06-08T13:49:02.665Z,29.90
2019-06-08T13:51:33.970Z,29.90
2019-06-08T13:54:03.728Z,29.90
2019-06-08T13:56:33.542Z,29.90
2019-06-08T13:59:03.346Z,29.80
2019-06-08T14:01:33.934Z,29.80
2019-06-08T14:04:03.791Z,29.70
2019-06-08T14:06:33.791Z,29.80
2019-06-08T14:09:03.626Z,29.80
2019-06-08T14:11:34.694Z,29.70
2019-06-08T14:14:04.680Z,29.70
2019-06-08T14:16:34.491Z,29.70
2019-06-08T14:19:04.303Z,29.60
2019-06-08T14:21:38.726Z,29.60
2019-06-08T14:24:07.602Z,29.60
2019-06-08T14:26:37.638Z,29.50
2019-06-08T14:29:08.336Z,29.50
2019-06-08T14:31:39.714Z,29.50
2019-06-08T14:34:10.357Z,29.40
2019-06-08T14:36:41.028Z,29.40
2019-06-08T14:39:11.478Z,29.40
2019-06-08T14:41:41.623Z,29.40
2019-06-08T14:44:12.355Z,29.30
2019-06-08T14:46:42.076Z,29.30
2019-06-08T14:49:11.883Z,29.30
2019-06-08T14:51:54.289Z,29.20
2019-06-08T14:54:30.881Z,29.20
2019-06-08T14:56:58.069Z,29.20
2019-06-08T14:59:30.448Z,29.10
2019-06-08T15:02:00.906Z,29.10
2019-06-08T15:04:35.979Z,29.10
2019-06-08T15:07:03.456Z,29.10
2019-06-08T15:09:37.427Z,29.00
2019-06-08T15:12:09.228Z,29.00
2019-06-08T15:14:40.730Z,29.00
2019-06-08T15:17:10.740Z,29.00
2019-06-08T15:19:40.446Z,29.00
2019-06-08T15:22:11.239Z,28.90
2019-06-08T15:24:41.399Z,28.90
2019-06-08T15:27:11.315Z,28.90
2019-06-08T15:29:41.127Z,28.90
2019-06-08T15:32:10.838Z,28.80
2019-06-08T15:34:41.423Z,28.70
2019-06-08T15:37:11.414Z,28.70
2019-06-08T15:39:41.096Z,28.60
2019-06-08T15:42:11.626Z,28.60
2019-06-08T15:44:41.637Z,28.50
2019-06-08T15:47:11.348Z,28.40
2019-06-08T15:49:41.158Z,28.40
2019-06-08T15:52:10.873Z,28.30
2019-06-08T15:54:41.091Z,28.30
2019-06-08T15:57:10.908Z,28.30
2019-06-08T15:59:41.831Z,28.20
2019-06-08T16:02:11.965Z,28.20
2019-06-08T16:04:41.554Z,28.20
2019-06-08T16:07:11.302Z,28.10
2019-06-08T16:09:40.991Z,28.10
2019-06-08T16:12:10.803Z,28.10
2019-06-08T16:14:41.517Z,28.00
2019-06-08T16:17:11.300Z,28.00
2019-06-08T16:19:40.876Z,28.00
2019-06-08T16:22:10.567Z,28.00
2019-06-08T16:24:40.271Z,28.00
2019-06-08T16:27:09.918Z,28.10
2019-06-08T16:29:40.613Z,28.10
2019-06-08T16:32:10.527Z,28.20
2019-06-08T16:34:41.011Z,28.30
2019-06-08T16:37:10.975Z,28.40
2019-06-08T16:39:40.575Z,28.40
2019-06-08T16:42:10.215Z,28.50
2019-06-08T16:44:40.000Z,28.50
2019-06-08T16:47:09.711Z,28.60
2019-06-08T16:49:39.651Z,28.60
2019-06-08T16:52:09.539Z,28.60
2019-06-08T16:54:39.351Z,28.60
2019-06-08T16:57:10.958Z,28.60
2019-06-08T16:59:40.100Z,28.60
2019-06-08T17:02:10.221Z,28.60
2019-06-08T17:04:40.243Z,28.60
2019-06-08T17:07:09.945Z,28.60
2019-06-08T17:09:40.104Z,28.60
2019-06-08T17:12:10.044Z,28.50
2019-06-08T17:14:40.634Z,28.50
2019-06-08T17:17:10.529Z,28.50
2019-06-08T17:19:40.358Z,28.50
2019-06-08T17:22:10.252Z,28.50
2019-06-08T17:24:40.742Z,28.50
2019-06-08T17:27:25.749Z,28.40
2019-06-08T17:29:41.529Z,28.40
2019-06-08T17:32:11.242Z,28.40
2019-06-08T17:34:42.297Z,28.40
2019-06-08T17:37:11.785Z,28.30
2019-06-08T17:39:42.250Z,28.30
2019-06-08T17:42:12.542Z,28.30
2019-06-08T17:44:42.602Z,28.20
2019-06-08T17:47:12.468Z,28.20
2019-06-08T17:49:42.943Z,28.10
2019-06-08T17:52:13.222Z,28.10
2019-06-08T17:54:43.300Z,28.00
2019-06-08T17:57:13.250Z,28.00
2019-06-08T17:59:42.840Z,27.90
2019-06-08T18:02:18.898Z,27.90
2019-06-08T18:04:44.345Z,27.80
2019-06-08T18:07:17.134Z,27.80
2019-06-08T18:09:48.352Z,27.70
2019-06-08T18:12:18.365Z,27.70
2019-06-08T18:14:48.495Z,27.60
2019-06-08T18:17:18.203Z,27.60
2019-06-08T18:19:49.588Z,27.60
2019-06-08T18:22:18.967Z,27.50
2019-06-08T18:24:48.665Z,27.50
2019-06-08T18:27:18.425Z,27.50
2019-06-08T18:29:48.672Z,27.50
2019-06-08T18:32:18.719Z,27.40
2019-06-08T18:34:48.626Z,27.40
2019-06-08T18:37:18.311Z,27.40
2019-06-08T18:39:49.331Z,27.30
2019-06-08T18:42:19.088Z,27.30
2019-06-08T18:44:48.711Z,27.30
2019-06-08T18:47:18.404Z,27.30
2019-06-08T18:49:48.494Z,27.30
2019-06-08T18:52:18.745Z,27.30
2019-06-08T18:54:49.665Z,27.40
2019-06-08T18:57:19.524Z,27.40
2019-06-08T18:59:52.913Z,27.30
2019-06-08T19:02:20.251Z,27.30
2019-06-08T19:04:50.466Z,27.30
2019-06-08T19:07:20.292Z,27.30
2019-06-08T19:09:49.997Z,27.30
2019-06-08T19:12:19.872Z,27.20
2019-06-08T19:14:52.290Z,27.20
2019-06-08T19:17:21.884Z,27.20
2019-06-08T19:19:52.499Z,27.20
2019-06-08T19:22:22.259Z,27.10
2019-06-08T19:24:51.939Z,27.10
2019-06-08T19:27:21.748Z,27.10
2019-06-08T19:29:51.730Z,27.10
2019-06-08T19:32:21.581Z,27.00
2019-06-08T19:34:53.937Z,27.00
2019-06-08T19:37:22.335Z,27.00
2019-06-08T19:39:52.142Z,27.00
2019-06-08T19:42:35.579Z,27.00
2019-06-08T19:45:01.120Z,26.90
2019-06-08T19:47:23.645Z,26.90
2019-06-08T19:49:54.774Z,26.90
2019-06-08T19:52:24.272Z,26.80
2019-06-08T19:54:54.131Z,26.80
2019-06-08T19:57:23.908Z,26.80
2019-06-08T19:59:53.608Z,26.70
2019-06-08T20:02:23.216Z,26.70
2019-06-08T20:04:53.278Z,26.70
2019-06-08T20:07:23.210Z,26.70
2019-06-08T20:09:53.936Z,26.70
2019-06-08T20:12:23.648Z,26.70
2019-06-08T20:14:53.867Z,26.70
2019-06-08T20:17:23.507Z,26.60
2019-06-08T20:19:53.421Z,26.60
2019-06-08T20:22:23.556Z,26.50
2019-06-08T20:24:55.743Z,26.50
2019-06-08T20:27:24.498Z,26.50
2019-06-08T20:29:54.223Z,26.50
2019-06-08T20:32:23.933Z,26.50
2019-06-08T20:34:53.751Z,26.50
2019-06-08T20:37:23.564Z,26.50
2019-06-08T20:40:04.559Z,26.50
2019-06-08T20:42:24.306Z,26.50
2019-06-08T20:44:53.957Z,26.40
2019-06-08T20:47:23.830Z,26.40
2019-06-08T20:49:53.579Z,26.40
2019-06-08T20:52:23.257Z,26.30
2019-06-08T20:54:53.523Z,26.30
2019-06-08T20:57:23.353Z,26.30
2019-06-08T20:59:54.027Z,26.30
2019-06-08T21:02:24.245Z,26.30
2019-06-08T21:04:54.896Z,26.30
2019-06-08T21:07:24.797Z,26.30
2019-06-08T21:09:55.295Z,26.30
2019-06-08T21:12:28.156Z,26.30
2019-06-08T21:14:56.788Z,26.30
2019-06-08T21:17:27.522Z,26.30
2019-06-08T21:19:57.958Z,26.30
2019-06-08T21:22:28.780Z,26.30
2019-06-08T21:24:59.854Z,26.30
2019-06-08T21:27:29.527Z,26.30
2019-06-08T21:30:06.829Z,26.30
2019-06-08T21:32:30.179Z,26.30
2019-06-08T21:35:00.380Z,26.20
2019-06-08T21:37:30.324Z,26.20
2019-06-08T21:40:03.989Z,26.20
2019-06-08T21:42:30.959Z,26.20
2019-06-08T21:45:02.947Z,26.10
2019-06-08T21:47:32.632Z,26.10
2019-06-08T21:50:02.559Z,26.10
2019-06-08T21:52:32.362Z,26.00
2019-06-08T21:55:02.173Z,26.00
2019-06-08T21:57:31.965Z,26.00
2019-06-08T22:00:21.611Z,26.00
2019-06-08T22:02:32.857Z,26.00
2019-06-08T22:05:04.663Z,26.00
2019-06-08T22:07:33.491Z,26.00
2019-06-08T22:10:03.153Z,26.00
2019-06-08T22:12:32.912Z,26.00
2019-06-08T22:15:03.142Z,26.00
2019-06-08T22:17:33.330Z,26.00
2019-06-08T22:20:03.464Z,26.00
2019-06-08T22:22:33.503Z,26.00
2019-06-08T22:25:03.661Z,26.00
2019-06-08T22:27:33.622Z,25.90
2019-06-08T22:30:09.768Z,25.90
2019-06-08T22:32:38.467Z,25.90
2019-06-08T22:35:08.002Z,25.90
2019-06-08T22:37:38.173Z,25.90
2019-06-08T22:40:08.386Z,25.90
2019-06-08T22:42:38.229Z,25.80
2019-06-08T22:45:08.564Z,25.80
2019-06-08T22:47:38.814Z,25.80
2019-06-08T22:50:08.696Z,25.80
2019-06-08T22:52:38.406Z,25.90
2019-06-08T22:55:10.890Z,25.90
2019-06-08T22:57:39.255Z,25.90
2019-06-08T23:00:17.085Z,25.90
2019-06-08T23:02:40.138Z,25.90
2019-06-08T23:05:09.822Z,26.00
2019-06-08T23:07:40.462Z,26.00
2019-06-08T23:10:10.158Z,26.10
2019-06-08T23:12:39.864Z,26.10
2019-06-08T23:15:10.867Z,26.10
2019-06-08T23:17:40.470Z,26.20
2019-06-08T23:20:10.124Z,26.20
2019-06-08T23:22:39.833Z,26.20
2019-06-08T23:25:09.795Z,26.30
2019-06-08T23:27:39.663Z,26.30
2019-06-08T23:30:10.226Z,26.40
2019-06-08T23:32:40.421Z,26.50
2019-06-08T23:35:10.238Z,26.50
2019-06-08T23:37:39.937Z,26.70
2019-06-08T23:40:09.540Z,26.70
2019-06-08T23:42:39.253Z,26.80
2019-06-08T23:45:10.623Z,26.80
2019-06-08T23:47:40.104Z,26.90
2019-06-08T23:50:11.486Z,27.00
2019-06-08T23:52:40.751Z,27.10
2019-06-08T23:55:11.878Z,27.20
2019-06-08T23:57:41.456Z,27.30
